首页
METAR-TAF:

METAR-TAF

机场 :

萨格勒布机场

萨格勒布, 克罗地亚

纬度: 45-44N, 经度: 016-04E, 海拔: 106米

当前天气观测

该预报发布于15分钟前的18:30 UTC
风速4节,风向北转东北,在东转东北之间变化
温度 -2°C
湿度 86%
气压 1001 hPa
能見度: 5000
阴天层高于1500英尺
小雪

METAR: LDZA 231830Z 03004KT 010V070 5000 -SN OVC015 M02/M04 Q1001 R99/19//95 BECMG OVC013

时间: 19:45 (18:45 UTC)

预报

该预报发布于1小时和20分钟前的17:25 UTC
预报有效从23日的 18点(UTC)到 24日的 18点(UTC)
风速5节,风向东北
能見度: 7000
多云层高于1500英尺
阴天层高于3000英尺
短暂存在
从 23日的 18点(UTC)到 24日的 18点(UTC)
能見度: 2000
多云层高于1000英尺
阴天层高于2000英尺
小雪, 轻雾
几率 30%
从 24日的 12点(UTC)到 24日的 18点(UTC)
风速8节,风向东北

TAF: LDZA 231725Z 2318/2418 05005KT 7000 BKN015 OVC030 TX00/2414Z TNM03/2401Z TEMPO 2318/2418 2000 -SN BR BKN010 OVC020 PROB30 2412/2418 05008KT

超过4000个机场的气象观测和天气预报(METAR&TAF报告)。

可查询的气象台以黄色和红色小点在地图上表示。

将鼠标移到小点上方,可查看气象台名称。

然后点击查看天气观测和预报。

如需切换地图:点击带黑十字的绿色按钮放大地图;点击带横线的绿色按钮缩小地图;或者点击绿色箭头查看邻近地区的地图。


METAR-TAF: